Terminal Aerodrome Forecast
Issued by NWS

Home | Current Version | Previous Version | Text Only | Print | Product List | Glossary On
Versions: 1 2 3 4 5 6 7 8 9 10 11 12 13 14 15 16 17 18 19 20 21 22 23 24 25 26 27 28 29
000
FTUS43 KLOT 260301 AAA
TAFMDW
TAF AMD
KMDW 260301Z 2603/2624 27010KT P6SM VCSH BKN060
     FM260430 34012KT P6SM -SHRA OVC060
     FM260500 27008KT P6SM SCT060
     FM261500 29015G24KT P6SM BKN050
     FM262200 32014G22KT P6SM BKN060=

USA.gov is the U.S. government's official web portal to all federal, state and local government web resources and services.